sensor_id;sensor_type;location;lat;lon;timestamp;P1;durP1;ratioP1;P2;durP2;ratioP2
9186;SDS011;7273;48.902;9.410;2022-07-29T00:00:02;1.95;;;1.30;;
9186;SDS011;7273;48.902;9.410;2022-07-29T00:02:29;2.22;;;1.23;;
9186;SDS011;7273;48.902;9.410;2022-07-29T00:04:56;3.15;;;1.30;;
9186;SDS011;7273;48.902;9.410;2022-07-29T00:07:22;1.65;;;1.23;;
9186;SDS011;7273;48.902;9.410;2022-07-29T00:09:47;1.63;;;1.13;;
9186;SDS011;7273;48.902;9.410;2022-07-29T00:12:13;2.47;;;1.27;;
9186;SDS011;7273;48.902;9.410;2022-07-29T00:14:38;2.33;;;1.23;;
9186;SDS011;7273;48.902;9.410;2022-07-29T00:17:03;3.30;;;1.27;;
9186;SDS011;7273;48.902;9.410;2022-07-29T00:19:29;4.35;;;1.52;;
9186;SDS011;7273;48.902;9.410;2022-07-29T00:21:54;3.28;;;1.23;;
9186;SDS011;7273;48.902;9.410;2022-07-29T00:24:20;2.45;;;1.15;;
9186;SDS011;7273;48.902;9.410;2022-07-29T00:26:45;2.05;;;1.00;;
9186;SDS011;7273;48.902;9.410;2022-07-29T00:29:10;3.10;;;2.03;;
9186;SDS011;7273;48.902;9.410;2022-07-29T00:31:36;3.95;;;1.48;;
9186;SDS011;7273;48.902;9.410;2022-07-29T00:34:01;4.68;;;1.27;;
9186;SDS011;7273;48.902;9.410;2022-07-29T00:36:28;2.40;;;1.20;;
9186;SDS011;7273;48.902;9.410;2022-07-29T00:38:53;3.78;;;1.58;;
9186;SDS011;7273;48.902;9.410;2022-07-29T00:41:19;4.88;;;1.27;;
9186;SDS011;7273;48.902;9.410;2022-07-29T00:43:45;2.35;;;1.35;;
9186;SDS011;7273;48.902;9.410;2022-07-29T00:46:11;8.02;;;1.55;;
9186;SDS011;7273;48.902;9.410;2022-07-29T00:48:37;3.42;;;1.48;;
9186;SDS011;7273;48.902;9.410;2022-07-29T00:51:03;2.47;;;1.63;;
9186;SDS011;7273;48.902;9.410;2022-07-29T00:53:30;4.68;;;1.52;;
9186;SDS011;7273;48.902;9.410;2022-07-29T00:55:56;2.83;;;1.48;;
9186;SDS011;7273;48.902;9.410;2022-07-29T00:58:22;1.33;;;1.02;;
9186;SDS011;7273;48.902;9.410;2022-07-29T01:00:49;3.08;;;1.60;;
9186;SDS011;7273;48.902;9.410;2022-07-29T01:03:14;2.28;;;1.45;;
9186;SDS011;7273;48.902;9.410;2022-07-29T01:05:40;2.92;;;1.70;;
9186;SDS011;7273;48.902;9.410;2022-07-29T01:08:07;2.60;;;1.65;;
9186;SDS011;7273;48.902;9.410;2022-07-29T01:10:33;1.08;;;0.80;;
9186;SDS011;7273;48.902;9.410;2022-07-29T01:13:03;1.67;;;1.33;;
9186;SDS011;7273;48.902;9.410;2022-07-29T01:15:29;2.03;;;1.52;;
9186;SDS011;7273;48.902;9.410;2022-07-29T01:18:07;3.10;;;1.17;;
9186;SDS011;7273;48.902;9.410;2022-07-29T01:26:07;4.40;;;1.40;;
9186;SDS011;7273;48.902;9.410;2022-07-29T01:31:20;2.67;;;1.58;;
9186;SDS011;7273;48.902;9.410;2022-07-29T01:33:55;1.73;;;1.08;;
9186;SDS011;7273;48.902;9.410;2022-07-29T01:36:30;1.92;;;1.38;;
9186;SDS011;7273;48.902;9.410;2022-07-29T01:39:02;2.00;;;1.33;;
9186;SDS011;7273;48.902;9.410;2022-07-29T01:41:31;1.42;;;1.30;;
9186;SDS011;7273;48.902;9.410;2022-07-29T01:44:02;4.15;;;1.10;;
9186;SDS011;7273;48.902;9.410;2022-07-29T01:46:37;3.20;;;1.27;;
9186;SDS011;7273;48.902;9.410;2022-07-29T01:49:17;2.80;;;1.52;;
9186;SDS011;7273;48.902;9.410;2022-07-29T01:51:50;4.90;;;1.83;;
9186;SDS011;7273;48.902;9.410;2022-07-29T01:54:20;4.50;;;1.70;;
9186;SDS011;7273;48.902;9.410;2022-07-29T01:56:51;5.50;;;1.30;;
9186;SDS011;7273;48.902;9.410;2022-07-29T01:59:20;2.85;;;1.75;;
9186;SDS011;7273;48.902;9.410;2022-07-29T02:01:46;1.38;;;0.82;;
9186;SDS011;7273;48.902;9.410;2022-07-29T02:04:13;1.92;;;1.17;;
9186;SDS011;7273;48.902;9.410;2022-07-29T02:06:41;4.63;;;1.65;;
9186;SDS011;7273;48.902;9.410;2022-07-29T02:09:08;1.63;;;1.13;;
9186;SDS011;7273;48.902;9.410;2022-07-29T02:11:37;6.93;;;1.48;;
9186;SDS011;7273;48.902;9.410;2022-07-29T02:14:04;1.85;;;1.10;;
9186;SDS011;7273;48.902;9.410;2022-07-29T02:16:32;2.75;;;1.10;;
9186;SDS011;7273;48.902;9.410;2022-07-29T02:18:58;2.67;;;1.48;;
9186;SDS011;7273;48.902;9.410;2022-07-29T02:21:26;5.25;;;1.48;;
9186;SDS011;7273;48.902;9.410;2022-07-29T02:23:54;1.98;;;1.15;;
9186;SDS011;7273;48.902;9.410;2022-07-29T02:26:24;2.90;;;1.45;;
9186;SDS011;7273;48.902;9.410;2022-07-29T02:28:51;1.70;;;1.40;;
9186;SDS011;7273;48.902;9.410;2022-07-29T02:31:21;1.95;;;1.17;;
9186;SDS011;7273;48.902;9.410;2022-07-29T02:33:47;3.53;;;2.47;;
9186;SDS011;7273;48.902;9.410;2022-07-29T02:36:15;6.05;;;1.45;;
9186;SDS011;7273;48.902;9.410;2022-07-29T02:38:42;1.98;;;1.23;;
9186;SDS011;7273;48.902;9.410;2022-07-29T02:41:28;2.50;;;1.73;;
9186;SDS011;7273;48.902;9.410;2022-07-29T02:43:57;2.45;;;1.70;;
9186;SDS011;7273;48.902;9.410;2022-07-29T02:46:32;5.28;;;1.55;;
9186;SDS011;7273;48.902;9.410;2022-07-29T02:49:09;4.00;;;1.38;;
9186;SDS011;7273;48.902;9.410;2022-07-29T02:51:45;4.15;;;1.33;;
9186;SDS011;7273;48.902;9.410;2022-07-29T02:54:19;3.72;;;2.00;;
9186;SDS011;7273;48.902;9.410;2022-07-29T02:56:47;2.25;;;1.40;;
9186;SDS011;7273;48.902;9.410;2022-07-29T02:59:18;4.00;;;1.90;;
9186;SDS011;7273;48.902;9.410;2022-07-29T03:01:50;2.58;;;1.63;;
9186;SDS011;7273;48.902;9.410;2022-07-29T03:04:17;3.33;;;1.73;;
9186;SDS011;7273;48.902;9.410;2022-07-29T03:06:46;5.05;;;1.92;;
9186;SDS011;7273;48.902;9.410;2022-07-29T03:09:14;4.85;;;1.70;;
9186;SDS011;7273;48.902;9.410;2022-07-29T03:11:41;4.55;;;1.88;;
9186;SDS011;7273;48.902;9.410;2022-07-29T03:14:08;2.72;;;1.45;;
9186;SDS011;7273;48.902;9.410;2022-07-29T03:16:33;3.95;;;1.45;;
9186;SDS011;7273;48.902;9.410;2022-07-29T03:19:01;3.13;;;1.63;;
9186;SDS011;7273;48.902;9.410;2022-07-29T03:21:28;3.05;;;1.58;;
9186;SDS011;7273;48.902;9.410;2022-07-29T03:23:54;1.45;;;1.15;;
9186;SDS011;7273;48.902;9.410;2022-07-29T03:26:19;2.58;;;1.17;;
9186;SDS011;7273;48.902;9.410;2022-07-29T03:28:45;3.10;;;1.63;;
9186;SDS011;7273;48.902;9.410;2022-07-29T03:31:11;5.35;;;1.90;;
9186;SDS011;7273;48.902;9.410;2022-07-29T03:33:36;2.90;;;2.05;;
9186;SDS011;7273;48.902;9.410;2022-07-29T03:36:01;3.17;;;1.52;;
9186;SDS011;7273;48.902;9.410;2022-07-29T03:38:27;3.15;;;1.55;;
9186;SDS011;7273;48.902;9.410;2022-07-29T03:41:00;2.65;;;1.60;;
9186;SDS011;7273;48.902;9.410;2022-07-29T03:43:29;7.90;;;1.88;;
9186;SDS011;7273;48.902;9.410;2022-07-29T03:45:57;10.57;;;2.20;;
9186;SDS011;7273;48.902;9.410;2022-07-29T03:48:25;2.15;;;1.10;;
9186;SDS011;7273;48.902;9.410;2022-07-29T03:50:54;6.88;;;2.33;;
9186;SDS011;7273;48.902;9.410;2022-07-29T03:53:20;2.08;;;1.13;;
9186;SDS011;7273;48.902;9.410;2022-07-29T03:55:50;2.47;;;1.52;;
9186;SDS011;7273;48.902;9.410;2022-07-29T03:58:19;2.78;;;1.40;;
9186;SDS011;7273;48.902;9.410;2022-07-29T04:00:46;6.28;;;1.63;;
9186;SDS011;7273;48.902;9.410;2022-07-29T04:03:12;3.40;;;1.15;;
9186;SDS011;7273;48.902;9.410;2022-07-29T04:05:38;6.13;;;1.20;;
9186;SDS011;7273;48.902;9.410;2022-07-29T04:08:03;2.08;;;1.45;;
9186;SDS011;7273;48.902;9.410;2022-07-29T04:10:29;4.82;;;2.75;;
9186;SDS011;7273;48.902;9.410;2022-07-29T04:12:54;5.05;;;1.55;;
9186;SDS011;7273;48.902;9.410;2022-07-29T04:15:20;2.30;;;1.52;;
9186;SDS011;7273;48.902;9.410;2022-07-29T04:17:45;4.90;;;2.20;;
9186;SDS011;7273;48.902;9.410;2022-07-29T04:20:11;2.20;;;1.30;;
9186;SDS011;7273;48.902;9.410;2022-07-29T04:22:39;3.05;;;1.25;;
9186;SDS011;7273;48.902;9.410;2022-07-29T04:25:05;1.58;;;1.17;;
9186;SDS011;7273;48.902;9.410;2022-07-29T04:27:32;2.53;;;1.45;;
9186;SDS011;7273;48.902;9.410;2022-07-29T04:29:57;5.45;;;2.42;;
9186;SDS011;7273;48.902;9.410;2022-07-29T04:32:23;4.45;;;1.90;;
9186;SDS011;7273;48.902;9.410;2022-07-29T04:34:49;12.20;;;1.92;;
9186;SDS011;7273;48.902;9.410;2022-07-29T04:37:14;3.13;;;1.42;;
9186;SDS011;7273;48.902;9.410;2022-07-29T04:39:40;3.75;;;1.58;;
9186;SDS011;7273;48.902;9.410;2022-07-29T04:42:05;9.90;;;1.65;;
9186;SDS011;7273;48.902;9.410;2022-07-29T04:44:31;4.05;;;1.85;;
9186;SDS011;7273;48.902;9.410;2022-07-29T04:46:56;7.55;;;2.00;;
9186;SDS011;7273;48.902;9.410;2022-07-29T04:49:22;4.90;;;1.65;;
9186;SDS011;7273;48.902;9.410;2022-07-29T04:51:48;5.68;;;2.00;;
9186;SDS011;7273;48.902;9.410;2022-07-29T04:54:13;2.47;;;1.35;;
9186;SDS011;7273;48.902;9.410;2022-07-29T04:56:39;7.18;;;2.00;;
9186;SDS011;7273;48.902;9.410;2022-07-29T04:59:04;8.02;;;2.20;;
9186;SDS011;7273;48.902;9.410;2022-07-29T05:01:29;6.88;;;2.15;;
9186;SDS011;7273;48.902;9.410;2022-07-29T05:03:55;4.25;;;2.03;;
9186;SDS011;7273;48.902;9.410;2022-07-29T05:06:20;5.97;;;2.30;;
9186;SDS011;7273;48.902;9.410;2022-07-29T05:08:46;5.75;;;3.22;;
9186;SDS011;7273;48.902;9.410;2022-07-29T05:11:11;3.33;;;1.70;;
9186;SDS011;7273;48.902;9.410;2022-07-29T05:13:37;2.92;;;1.83;;
9186;SDS011;7273;48.902;9.410;2022-07-29T05:16:02;6.50;;;2.85;;
9186;SDS011;7273;48.902;9.410;2022-07-29T05:18:28;6.78;;;2.80;;
9186;SDS011;7273;48.902;9.410;2022-07-29T05:20:53;6.88;;;2.97;;
9186;SDS011;7273;48.902;9.410;2022-07-29T05:23:19;4.88;;;2.58;;
9186;SDS011;7273;48.902;9.410;2022-07-29T05:25:44;5.05;;;2.50;;
9186;SDS011;7273;48.902;9.410;2022-07-29T05:28:11;5.38;;;2.38;;
9186;SDS011;7273;48.902;9.410;2022-07-29T05:30:37;5.18;;;2.97;;
9186;SDS011;7273;48.902;9.410;2022-07-29T05:33:02;5.22;;;2.83;;
9186;SDS011;7273;48.902;9.410;2022-07-29T05:35:27;6.50;;;3.13;;
9186;SDS011;7273;48.902;9.410;2022-07-29T05:37:53;5.82;;;3.05;;
9186;SDS011;7273;48.902;9.410;2022-07-29T05:40:19;5.70;;;2.85;;
9186;SDS011;7273;48.902;9.410;2022-07-29T05:42:45;6.97;;;3.72;;
9186;SDS011;7273;48.902;9.410;2022-07-29T05:45:10;8.02;;;3.83;;
9186;SDS011;7273;48.902;9.410;2022-07-29T05:47:36;8.10;;;3.50;;
9186;SDS011;7273;48.902;9.410;2022-07-29T05:50:01;7.30;;;3.72;;
9186;SDS011;7273;48.902;9.410;2022-07-29T05:52:27;6.82;;;3.65;;
9186;SDS011;7273;48.902;9.410;2022-07-29T05:54:53;9.85;;;5.20;;
9186;SDS011;7273;48.902;9.410;2022-07-29T05:57:19;8.57;;;4.45;;
9186;SDS011;7273;48.902;9.410;2022-07-29T05:59:46;14.40;;;7.85;;
9186;SDS011;7273;48.902;9.410;2022-07-29T06:02:12;11.30;;;5.25;;
9186;SDS011;7273;48.902;9.410;2022-07-29T06:04:37;12.63;;;5.53;;
9186;SDS011;7273;48.902;9.410;2022-07-29T06:07:03;13.70;;;8.30;;
9186;SDS011;7273;48.902;9.410;2022-07-29T06:09:29;19.27;;;13.30;;
9186;SDS011;7273;48.902;9.410;2022-07-29T06:11:54;30.17;;;21.63;;
9186;SDS011;7273;48.902;9.410;2022-07-29T06:14:20;52.35;;;35.75;;
9186;SDS011;7273;48.902;9.410;2022-07-29T06:16:45;66.38;;;43.10;;
9186;SDS011;7273;48.902;9.410;2022-07-29T06:19:11;69.60;;;42.92;;
9186;SDS011;7273;48.902;9.410;2022-07-29T06:21:40;90.93;;;50.67;;
9186;SDS011;7273;48.902;9.410;2022-07-29T06:24:10;104.78;;;53.65;;
9186;SDS011;7273;48.902;9.410;2022-07-29T06:26:36;94.88;;;53.15;;
9186;SDS011;7273;48.902;9.410;2022-07-29T06:29:01;140.63;;;67.90;;
9186;SDS011;7273;48.902;9.410;2022-07-29T06:31:26;69.10;;;41.38;;
9186;SDS011;7273;48.902;9.410;2022-07-29T06:33:52;46.97;;;26.00;;
9186;SDS011;7273;48.902;9.410;2022-07-29T06:36:17;62.63;;;31.40;;
9186;SDS011;7273;48.902;9.410;2022-07-29T06:38:43;19.35;;;16.27;;
9186;SDS011;7273;48.902;9.410;2022-07-29T06:41:09;80.05;;;46.45;;
9186;SDS011;7273;48.902;9.410;2022-07-29T06:46:09;130.65;;;61.47;;
9186;SDS011;7273;48.902;9.410;2022-07-29T06:48:36;119.03;;;50.30;;
9186;SDS011;7273;48.902;9.410;2022-07-29T06:51:02;26.85;;;17.98;;
9186;SDS011;7273;48.902;9.410;2022-07-29T06:53:28;2.83;;;1.13;;
9186;SDS011;7273;48.902;9.410;2022-07-29T06:55:55;1.65;;;1.10;;
9186;SDS011;7273;48.902;9.410;2022-07-29T06:58:21;1.80;;;0.95;;
9186;SDS011;7273;48.902;9.410;2022-07-29T07:00:47;4.57;;;2.00;;
9186;SDS011;7273;48.902;9.410;2022-07-29T07:03:13;52.92;;;27.67;;
9186;SDS011;7273;48.902;9.410;2022-07-29T07:05:39;17.75;;;11.73;;
9186;SDS011;7273;48.902;9.410;2022-07-29T07:08:05;1.10;;;0.88;;
9186;SDS011;7273;48.902;9.410;2022-07-29T07:10:30;44.13;;;23.48;;
9186;SDS011;7273;48.902;9.410;2022-07-29T07:12:57;2.10;;;1.25;;
9186;SDS011;7273;48.902;9.410;2022-07-29T07:15:22;2.33;;;0.90;;
9186;SDS011;7273;48.902;9.410;2022-07-29T07:17:48;3.15;;;1.40;;
9186;SDS011;7273;48.902;9.410;2022-07-29T07:20:14;2.03;;;1.30;;
9186;SDS011;7273;48.902;9.410;2022-07-29T07:22:40;0.85;;;0.70;;
9186;SDS011;7273;48.902;9.410;2022-07-29T07:25:06;4.35;;;1.30;;
9186;SDS011;7273;48.902;9.410;2022-07-29T07:27:32;2.25;;;1.50;;
9186;SDS011;7273;48.902;9.410;2022-07-29T07:29:57;1.77;;;0.77;;
9186;SDS011;7273;48.902;9.410;2022-07-29T07:32:23;1.70;;;1.00;;
9186;SDS011;7273;48.902;9.410;2022-07-29T07:34:48;2.63;;;1.20;;
9186;SDS011;7273;48.902;9.410;2022-07-29T07:37:14;1.83;;;1.08;;
9186;SDS011;7273;48.902;9.410;2022-07-29T07:39:39;2.80;;;1.30;;
9186;SDS011;7273;48.902;9.410;2022-07-29T07:42:05;1.85;;;1.08;;
9186;SDS011;7273;48.902;9.410;2022-07-29T07:44:31;1.92;;;1.00;;
9186;SDS011;7273;48.902;9.410;2022-07-29T07:46:56;1.85;;;1.10;;
9186;SDS011;7273;48.902;9.410;2022-07-29T07:49:22;3.33;;;1.13;;
9186;SDS011;7273;48.902;9.410;2022-07-29T07:51:47;2.92;;;1.35;;
9186;SDS011;7273;48.902;9.410;2022-07-29T07:54:13;6.00;;;1.55;;
9186;SDS011;7273;48.902;9.410;2022-07-29T07:56:38;3.88;;;1.60;;
9186;SDS011;7273;48.902;9.410;2022-07-29T07:59:04;4.20;;;1.88;;
9186;SDS011;7273;48.902;9.410;2022-07-29T08:01:29;3.88;;;2.20;;
9186;SDS011;7273;48.902;9.410;2022-07-29T08:03:54;6.47;;;2.92;;
9186;SDS011;7273;48.902;9.410;2022-07-29T08:06:20;8.15;;;3.88;;
9186;SDS011;7273;48.902;9.410;2022-07-29T08:08:45;33.60;;;22.98;;
9186;SDS011;7273;48.902;9.410;2022-07-29T08:11:11;2.20;;;1.38;;
9186;SDS011;7273;48.902;9.410;2022-07-29T08:13:36;2.28;;;1.45;;
9186;SDS011;7273;48.902;9.410;2022-07-29T08:16:03;2.05;;;1.17;;
9186;SDS011;7273;48.902;9.410;2022-07-29T08:18:38;3.58;;;1.30;;
9186;SDS011;7273;48.902;9.410;2022-07-29T08:21:04;5.70;;;1.73;;
9186;SDS011;7273;48.902;9.410;2022-07-29T08:23:29;4.72;;;2.95;;
9186;SDS011;7273;48.902;9.410;2022-07-29T08:26:03;3.75;;;1.40;;
9186;SDS011;7273;48.902;9.410;2022-07-29T08:28:29;4.10;;;1.38;;
9186;SDS011;7273;48.902;9.410;2022-07-29T08:30:54;2.28;;;1.23;;
9186;SDS011;7273;48.902;9.410;2022-07-29T08:33:20;2.50;;;1.20;;
9186;SDS011;7273;48.902;9.410;2022-07-29T08:35:45;2.03;;;1.45;;
9186;SDS011;7273;48.902;9.410;2022-07-29T08:38:11;2.08;;;1.35;;
9186;SDS011;7273;48.902;9.410;2022-07-29T08:40:36;2.47;;;1.25;;
9186;SDS011;7273;48.902;9.410;2022-07-29T08:43:05;1.45;;;1.20;;
9186;SDS011;7273;48.902;9.410;2022-07-29T08:45:36;2.65;;;1.50;;
9186;SDS011;7273;48.902;9.410;2022-07-29T08:48:12;2.40;;;1.42;;
9186;SDS011;7273;48.902;9.410;2022-07-29T08:50:39;2.55;;;1.38;;
9186;SDS011;7273;48.902;9.410;2022-07-29T08:53:06;3.42;;;1.20;;
9186;SDS011;7273;48.902;9.410;2022-07-29T08:55:35;6.68;;;2.22;;
9186;SDS011;7273;48.902;9.410;2022-07-29T08:58:03;1.83;;;1.00;;
9186;SDS011;7273;48.902;9.410;2022-07-29T09:00:30;7.57;;;2.00;;
9186;SDS011;7273;48.902;9.410;2022-07-29T09:02:57;3.13;;;1.42;;
9186;SDS011;7273;48.902;9.410;2022-07-29T09:05:23;2.08;;;1.33;;
9186;SDS011;7273;48.902;9.410;2022-07-29T09:07:50;2.42;;;1.67;;
9186;SDS011;7273;48.902;9.410;2022-07-29T09:10:15;2.20;;;1.33;;
9186;SDS011;7273;48.902;9.410;2022-07-29T09:12:41;4.28;;;2.03;;
9186;SDS011;7273;48.902;9.410;2022-07-29T09:15:07;1.77;;;1.25;;
9186;SDS011;7273;48.902;9.410;2022-07-29T09:17:54;2.30;;;1.38;;
9186;SDS011;7273;48.902;9.410;2022-07-29T09:22:49;4.00;;;1.52;;
9186;SDS011;7273;48.902;9.410;2022-07-29T09:25:33;3.15;;;1.55;;
9186;SDS011;7273;48.902;9.410;2022-07-29T09:28:08;3.90;;;1.80;;
9186;SDS011;7273;48.902;9.410;2022-07-29T09:30:36;1.70;;;1.40;;
9186;SDS011;7273;48.902;9.410;2022-07-29T09:33:15;3.13;;;2.22;;
9186;SDS011;7273;48.902;9.410;2022-07-29T09:35:40;3.10;;;1.70;;
9186;SDS011;7273;48.902;9.410;2022-07-29T09:38:09;2.25;;;1.30;;
9186;SDS011;7273;48.902;9.410;2022-07-29T09:40:38;2.63;;;1.58;;
9186;SDS011;7273;48.902;9.410;2022-07-29T09:43:11;2.65;;;1.55;;
9186;SDS011;7273;48.902;9.410;2022-07-29T09:45:37;5.40;;;1.98;;
9186;SDS011;7273;48.902;9.410;2022-07-29T09:48:13;2.00;;;1.15;;
9186;SDS011;7273;48.902;9.410;2022-07-29T09:50:40;2.03;;;1.40;;
9186;SDS011;7273;48.902;9.410;2022-07-29T09:53:07;3.63;;;1.58;;
9186;SDS011;7273;48.902;9.410;2022-07-29T09:55:45;2.40;;;1.58;;
9186;SDS011;7273;48.902;9.410;2022-07-29T09:58:15;7.63;;;2.10;;
9186;SDS011;7273;48.902;9.410;2022-07-29T10:03:08;5.57;;;1.85;;
9186;SDS011;7273;48.902;9.410;2022-07-29T10:05:33;2.50;;;1.63;;
9186;SDS011;7273;48.902;9.410;2022-07-29T10:07:59;4.60;;;1.90;;
9186;SDS011;7273;48.902;9.410;2022-07-29T10:10:25;3.97;;;1.83;;
9186;SDS011;7273;48.902;9.410;2022-07-29T10:13:09;4.97;;;1.95;;
9186;SDS011;7273;48.902;9.410;2022-07-29T10:15:39;2.65;;;1.52;;
9186;SDS011;7273;48.902;9.410;2022-07-29T10:18:09;6.95;;;1.83;;
9186;SDS011;7273;48.902;9.410;2022-07-29T10:20:36;4.78;;;2.20;;
9186;SDS011;7273;48.902;9.410;2022-07-29T10:23:02;2.45;;;1.60;;
9186;SDS011;7273;48.902;9.410;2022-07-29T10:25:28;3.60;;;2.15;;
9186;SDS011;7273;48.902;9.410;2022-07-29T10:27:54;5.18;;;1.77;;
9186;SDS011;7273;48.902;9.410;2022-07-29T10:30:20;6.15;;;1.85;;
9186;SDS011;7273;48.902;9.410;2022-07-29T10:44:21;2.35;;;1.80;;
9186;SDS011;7273;48.902;9.410;2022-07-29T10:46:48;4.80;;;2.13;;
9186;SDS011;7273;48.902;9.410;2022-07-29T10:54:15;3.20;;;1.85;;
9186;SDS011;7273;48.902;9.410;2022-07-29T10:56:41;8.82;;;1.85;;
9186;SDS011;7273;48.902;9.410;2022-07-29T11:01:44;1.80;;;1.38;;
9186;SDS011;7273;48.902;9.410;2022-07-29T11:04:10;3.85;;;2.15;;
9186;SDS011;7273;48.902;9.410;2022-07-29T11:09:23;4.30;;;1.75;;
9186;SDS011;7273;48.902;9.410;2022-07-29T11:11:48;5.75;;;2.47;;
9186;SDS011;7273;48.902;9.410;2022-07-29T11:14:14;2.58;;;1.73;;
9186;SDS011;7273;48.902;9.410;2022-07-29T11:19:29;4.43;;;2.35;;
9186;SDS011;7273;48.902;9.410;2022-07-29T11:21:55;2.63;;;1.80;;
9186;SDS011;7273;48.902;9.410;2022-07-29T11:24:27;6.95;;;2.83;;
9186;SDS011;7273;48.902;9.410;2022-07-29T11:29:51;20.83;;;12.63;;
9186;SDS011;7273;48.902;9.410;2022-07-29T11:32:17;2.67;;;1.65;;
9186;SDS011;7273;48.902;9.410;2022-07-29T11:44:55;8.93;;;1.75;;
9186;SDS011;7273;48.902;9.410;2022-07-29T11:47:30;2.17;;;1.35;;
9186;SDS011;7273;48.902;9.410;2022-07-29T11:49:57;3.42;;;2.08;;
9186;SDS011;7273;48.902;9.410;2022-07-29T11:52:23;5.47;;;2.30;;
9186;SDS011;7273;48.902;9.410;2022-07-29T11:55:17;3.90;;;2.17;;
9186;SDS011;7273;48.902;9.410;2022-07-29T11:57:47;2.75;;;1.70;;
9186;SDS011;7273;48.902;9.410;2022-07-29T12:03:00;11.82;;;2.83;;
9186;SDS011;7273;48.902;9.410;2022-07-29T12:05:45;4.90;;;2.67;;
9186;SDS011;7273;48.902;9.410;2022-07-29T12:08:11;4.97;;;2.38;;
9186;SDS011;7273;48.902;9.410;2022-07-29T12:10:39;3.83;;;1.95;;
9186;SDS011;7273;48.902;9.410;2022-07-29T12:13:05;5.18;;;2.03;;
9186;SDS011;7273;48.902;9.410;2022-07-29T12:15:31;3.00;;;1.88;;
9186;SDS011;7273;48.902;9.410;2022-07-29T12:17:56;4.05;;;1.92;;
9186;SDS011;7273;48.902;9.410;2022-07-29T12:20:25;4.20;;;2.38;;
9186;SDS011;7273;48.902;9.410;2022-07-29T12:22:52;4.05;;;2.63;;
9186;SDS011;7273;48.902;9.410;2022-07-29T12:25:19;5.47;;;2.70;;
9186;SDS011;7273;48.902;9.410;2022-07-29T12:27:46;7.50;;;2.50;;
9186;SDS011;7273;48.902;9.410;2022-07-29T12:30:13;4.20;;;2.22;;
9186;SDS011;7273;48.902;9.410;2022-07-29T12:32:47;7.75;;;2.10;;
9186;SDS011;7273;48.902;9.410;2022-07-29T12:35:19;9.85;;;2.92;;
9186;SDS011;7273;48.902;9.410;2022-07-29T12:37:46;3.80;;;2.03;;
9186;SDS011;7273;48.902;9.410;2022-07-29T12:40:14;4.80;;;2.42;;
9186;SDS011;7273;48.902;9.410;2022-07-29T12:42:41;3.00;;;1.63;;
9186;SDS011;7273;48.902;9.410;2022-07-29T12:45:34;9.82;;;1.90;;
9186;SDS011;7273;48.902;9.410;2022-07-29T12:48:00;3.80;;;1.75;;
9186;SDS011;7273;48.902;9.410;2022-07-29T12:50:26;3.40;;;1.90;;
9186;SDS011;7273;48.902;9.410;2022-07-29T12:52:52;3.38;;;1.95;;
9186;SDS011;7273;48.902;9.410;2022-07-29T12:58:05;3.85;;;2.00;;
9186;SDS011;7273;48.902;9.410;2022-07-29T13:00:30;3.35;;;1.88;;
9186;SDS011;7273;48.902;9.410;2022-07-29T13:02:57;11.90;;;1.83;;
9186;SDS011;7273;48.902;9.410;2022-07-29T13:05:24;3.13;;;1.95;;
9186;SDS011;7273;48.902;9.410;2022-07-29T13:08:10;2.78;;;1.60;;
9186;SDS011;7273;48.902;9.410;2022-07-29T13:10:37;2.75;;;1.45;;
9186;SDS011;7273;48.902;9.410;2022-07-29T13:13:12;2.35;;;1.52;;
9186;SDS011;7273;48.902;9.410;2022-07-29T13:15:40;4.82;;;1.35;;
9186;SDS011;7273;48.902;9.410;2022-07-29T13:20:53;1.23;;;0.90;;
9186;SDS011;7273;48.902;9.410;2022-07-29T13:23:18;1.52;;;0.73;;
9186;SDS011;7273;48.902;9.410;2022-07-29T13:25:44;1.15;;;0.98;;
9186;SDS011;7273;48.902;9.410;2022-07-29T13:28:09;1.40;;;1.13;;
9186;SDS011;7273;48.902;9.410;2022-07-29T13:30:36;1.60;;;0.82;;
9186;SDS011;7273;48.902;9.410;2022-07-29T13:33:02;1.85;;;1.05;;
9186;SDS011;7273;48.902;9.410;2022-07-29T13:35:28;4.93;;;1.13;;
9186;SDS011;7273;48.902;9.410;2022-07-29T13:37:54;2.13;;;1.00;;
9186;SDS011;7273;48.902;9.410;2022-07-29T13:40:20;1.45;;;1.05;;
9186;SDS011;7273;48.902;9.410;2022-07-29T13:42:45;1.13;;;0.75;;
9186;SDS011;7273;48.902;9.410;2022-07-29T13:45:11;1.10;;;0.75;;
9186;SDS011;7273;48.902;9.410;2022-07-29T13:47:37;2.15;;;0.90;;
9186;SDS011;7273;48.902;9.410;2022-07-29T13:50:03;2.25;;;1.27;;
9186;SDS011;7273;48.902;9.410;2022-07-29T13:52:30;2.63;;;1.23;;
9186;SDS011;7273;48.902;9.410;2022-07-29T13:54:55;1.70;;;0.82;;
9186;SDS011;7273;48.902;9.410;2022-07-29T13:57:21;1.70;;;1.00;;
9186;SDS011;7273;48.902;9.410;2022-07-29T13:59:46;1.90;;;1.13;;
9186;SDS011;7273;48.902;9.410;2022-07-29T14:02:12;1.63;;;0.90;;
9186;SDS011;7273;48.902;9.410;2022-07-29T14:04:38;0.80;;;0.77;;
9186;SDS011;7273;48.902;9.410;2022-07-29T14:07:03;2.15;;;0.77;;
9186;SDS011;7273;48.902;9.410;2022-07-29T14:09:29;3.00;;;1.40;;
9186;SDS011;7273;48.902;9.410;2022-07-29T14:11:55;1.33;;;0.90;;
9186;SDS011;7273;48.902;9.410;2022-07-29T14:14:20;2.10;;;0.80;;
9186;SDS011;7273;48.902;9.410;2022-07-29T14:16:46;1.80;;;1.10;;
9186;SDS011;7273;48.902;9.410;2022-07-29T14:19:12;1.85;;;1.10;;
9186;SDS011;7273;48.902;9.410;2022-07-29T14:21:38;1.77;;;1.08;;
9186;SDS011;7273;48.902;9.410;2022-07-29T14:24:04;3.67;;;1.17;;
9186;SDS011;7273;48.902;9.410;2022-07-29T14:26:30;2.45;;;1.45;;
9186;SDS011;7273;48.902;9.410;2022-07-29T14:28:55;1.63;;;1.02;;
9186;SDS011;7273;48.902;9.410;2022-07-29T14:31:21;1.33;;;0.98;;
9186;SDS011;7273;48.902;9.410;2022-07-29T14:33:46;1.75;;;1.00;;
9186;SDS011;7273;48.902;9.410;2022-07-29T14:36:12;2.47;;;1.30;;
9186;SDS011;7273;48.902;9.410;2022-07-29T14:38:37;2.13;;;1.27;;
9186;SDS011;7273;48.902;9.410;2022-07-29T14:41:03;7.07;;;1.40;;
9186;SDS011;7273;48.902;9.410;2022-07-29T14:43:29;2.78;;;1.50;;
9186;SDS011;7273;48.902;9.410;2022-07-29T14:45:55;2.25;;;1.30;;
9186;SDS011;7273;48.902;9.410;2022-07-29T14:48:20;2.67;;;1.20;;
9186;SDS011;7273;48.902;9.410;2022-07-29T14:50:45;2.50;;;1.25;;
9186;SDS011;7273;48.902;9.410;2022-07-29T14:53:11;3.22;;;1.90;;
9186;SDS011;7273;48.902;9.410;2022-07-29T14:55:38;5.15;;;1.92;;
9186;SDS011;7273;48.902;9.410;2022-07-29T14:58:05;4.07;;;2.05;;
9186;SDS011;7273;48.902;9.410;2022-07-29T15:00:31;49.55;;;27.38;;
9186;SDS011;7273;48.902;9.410;2022-07-29T15:02:58;4.05;;;1.85;;
9186;SDS011;7273;48.902;9.410;2022-07-29T15:05:24;2.65;;;1.50;;
9186;SDS011;7273;48.902;9.410;2022-07-29T15:07:50;2.17;;;1.42;;
9186;SDS011;7273;48.902;9.410;2022-07-29T15:10:16;2.15;;;1.30;;
9186;SDS011;7273;48.902;9.410;2022-07-29T15:12:41;2.40;;;1.35;;
9186;SDS011;7273;48.902;9.410;2022-07-29T15:15:07;3.08;;;1.52;;
9186;SDS011;7273;48.902;9.410;2022-07-29T15:17:33;2.35;;;1.42;;
9186;SDS011;7273;48.902;9.410;2022-07-29T15:19:59;2.20;;;1.25;;
9186;SDS011;7273;48.902;9.410;2022-07-29T15:22:24;3.42;;;1.65;;
9186;SDS011;7273;48.902;9.410;2022-07-29T15:24:49;2.65;;;1.60;;
9186;SDS011;7273;48.902;9.410;2022-07-29T15:27:15;7.18;;;1.65;;
9186;SDS011;7273;48.902;9.410;2022-07-29T15:29:41;14.55;;;1.88;;
9186;SDS011;7273;48.902;9.410;2022-07-29T15:32:07;3.72;;;1.70;;
9186;SDS011;7273;48.902;9.410;2022-07-29T15:34:33;16.35;;;2.03;;
9186;SDS011;7273;48.902;9.410;2022-07-29T15:36:58;4.82;;;1.55;;
9186;SDS011;7273;48.902;9.410;2022-07-29T15:39:24;3.55;;;1.63;;
9186;SDS011;7273;48.902;9.410;2022-07-29T15:41:49;2.55;;;1.58;;
9186;SDS011;7273;48.902;9.410;2022-07-29T15:44:15;3.53;;;1.80;;
9186;SDS011;7273;48.902;9.410;2022-07-29T15:46:41;1.58;;;1.20;;
9186;SDS011;7273;48.902;9.410;2022-07-29T15:49:25;2.83;;;1.70;;
9186;SDS011;7273;48.902;9.410;2022-07-29T15:51:56;3.63;;;1.80;;
9186;SDS011;7273;48.902;9.410;2022-07-29T15:54:25;2.45;;;1.45;;
9186;SDS011;7273;48.902;9.410;2022-07-29T15:56:50;7.70;;;2.22;;
9186;SDS011;7273;48.902;9.410;2022-07-29T15:59:16;2.80;;;1.40;;
9186;SDS011;7273;48.902;9.410;2022-07-29T16:01:41;3.65;;;1.67;;
9186;SDS011;7273;48.902;9.410;2022-07-29T16:04:06;3.05;;;1.85;;
9186;SDS011;7273;48.902;9.410;2022-07-29T16:06:32;3.13;;;1.77;;
9186;SDS011;7273;48.902;9.410;2022-07-29T16:08:57;3.08;;;1.40;;
9186;SDS011;7273;48.902;9.410;2022-07-29T16:11:24;4.63;;;1.77;;
9186;SDS011;7273;48.902;9.410;2022-07-29T16:13:50;2.95;;;1.63;;